Latest Weather Observations for Holsworthy

IDN60801

Issued at 7:02 am EST Thursday 25 May 2017 (issued every 30 minutes, with the page automatically refreshed every 10 minutes)

About weather observations | Map of weather stations | Latest weather observations for NSW | Other Formats
Station Details ID: 066161 Name: HOLSWORTHY AERODROME AWS Lat: -33.99 Lon: 150.95 Height: 68.16 m
Data from the previous 72 hours. | See also: Recent months at Holsworthy
Date/Time
EST
Temp
°C
App
Temp
°C
Dew
Point
°C
Rel
Hum
%
Delta-T
°C
Wind Press
QNH
hPa
Press
MSL
hPa
Rain since
9am
mm
Dir  Spd
km/h
Gust
km/h
Spd
kts
Gust
kts
25/07:00am 9.1 6.1 6.0 81 1.4 SW 11 17 6 9 1020.9 1020.8 0.0
25/06:30am 9.1 6.4 5.8 80 1.5 WSW 9 13 5 7 1020.4 1020.3 0.0
25/06:00am 10.1 7.5 6.1 76 1.9 SW 9 13 5 7 1019.9 1019.8 0.0
25/05:30am 10.4 7.4 6.2 75 2.0 SW 11 17 6 9 1019.7 1019.6 0.0
25/05:00am 10.1 7.5 6.1 76 1.9 SW 9 13 5 7 1019.5 1019.4 0.0
25/04:30am 10.4 7.1 6.4 76 1.9 SW 13 17 7 9 1019.4 1019.3 0.0
25/04:00am 9.3 6.7 6.0 80 1.5 WSW 9 13 5 7 1019.2 1019.1 0.0
25/03:30am 9.5 6.5 6.2 80 1.5 SW 11 15 6 8 1019.0 1018.9 0.0
25/03:00am 8.1 5.5 6.1 87 0.9 SW 9 13 5 7 1018.8 1018.7 0.0
25/02:30am 8.1 5.9 6.1 87 0.9 WSW 7 9 4 5 1018.8 1018.7 0.0
25/02:00am 8.4 6.2 6.4 87 0.9 SW 7 9 4 5 1018.8 1018.7 0.0
25/01:30am 7.9 5.7 6.0 88 0.9 WSW 7 9 4 5 1019.0 1018.9 0.0
25/01:00am 8.8 8.0 6.4 85 1.1 CALM 0 0 0 0 1019.0 1018.9 0.0
25/12:30am 8.8 6.8 6.4 85 1.1 N 6 7 3 4 1019.0 1018.9 0.0
25/12:00am 9.5 7.9 6.4 81 1.4 W 4 6 2 3 1018.8 1018.7 0.0
 
Date/Time
EST
Temp
°C
App
Temp
°C
Dew
Point
°C
Rel
Hum
%
Delta-T
°C
Wind Press
QNH
hPa
Press
MSL
hPa
Rain since
9am
mm
Dir  Spd
km/h
Gust
km/h
Spd
kts
Gust
kts
24/11:30pm 9.9 8.7 6.3 78 1.7 WSW 2 7 1 4 1018.9 1018.8 0.0
24/11:00pm 10.7 8.6 6.5 75 2.0 SW 7 11 4 6 1018.7 1018.6 0.0
24/10:30pm 10.7 8.6 6.5 75 2.0 WSW 7 9 4 5 1018.4 1018.3 0.0
24/10:00pm 11.1 8.9 6.3 72 2.3 SW 7 9 4 5 1018.3 1018.2 0.0
24/09:30pm 11.5 9.2 5.8 68 2.7 W 7 9 4 5 1018.2 1018.1 0.0
24/09:00pm 12.2 9.5 5.8 65 3.0 WSW 9 11 5 6 1018.0 1017.9 0.0
24/08:30pm 13.6 9.9 6.2 61 3.5 WSW 15 20 8 11 1017.6 1017.5 0.0
24/08:00pm 13.9 10.9 5.8 58 3.8 WSW 11 20 6 11 1017.5 1017.4 0.0
24/07:30pm 14.0 11.4 5.9 58 3.9 WSW 9 15 5 8 1017.3 1017.2 0.0
24/07:00pm 14.3 12.0 5.9 57 4.0 WSW 7 13 4 7 1017.0 1016.9 0.0
24/06:30pm 15.0 12.7 5.5 53 4.5 SW 7 13 4 7 1016.8 1016.7 0.0
24/06:00pm 16.5 12.6 5.5 48 5.3 W 15 22 8 12 1016.2 1016.1 0.0
24/05:30pm 17.0 12.6 5.0 45 5.7 WSW 17 28 9 15 1015.8 1015.7 0.0
24/05:00pm 17.6 12.8 4.9 43 6.1 W 19 28 10 15 1015.1 1015.0 0.0
24/04:30pm 18.5 13.7 5.4 42 6.4 W 20 35 11 19 1014.7 1014.6 0.0
24/04:00pm 19.4 14.0 4.7 38 7.1 W 22 35 12 19 1014.1 1014.1 0.0
24/03:30pm 20.1 15.3 5.4 38 7.3 W 20 37 11 20 1013.5 1013.5 0.0
24/03:01pm 20.4 13.9 4.8 36 7.6 W 28 48 15 26 1012.9 1012.9 0.0
24/03:00pm 20.4 13.9 4.8 36 7.6 W 28 44 15 24 1012.9 1012.9 0.0
24/02:30pm 20.8 15.4 6.4 39 7.3 W 24 39 13 21 1012.7 1012.7 0.0
24/02:00pm 20.9 15.5 6.4 39 7.3 W 24 35 13 19 1012.6 1012.6 0.0
24/01:30pm 21.1 15.1 7.0 40 7.2 WSW 28 44 15 24 1012.8 1012.8 0.0
24/01:16pm 21.1 14.9 6.2 38 7.5 W 28 44 15 24 1012.7 1012.7 0.0
24/01:00pm 21.7 18.5 9.9 47 6.4 W 17 22 9 12 1012.7 1012.7 0.0
24/12:30pm 20.8 18.9 11.7 56 5.1 W 13 20 7 11 1013.1 1013.1 0.0
24/12:00pm 20.5 18.4 12.5 60 4.5 W 15 19 8 10 1013.5 1013.5 0.0
24/11:30am 19.7 19.1 13.4 67 3.6 W 9 11 5 6 1014.0 1014.0 0.0
24/11:00am 18.4 17.6 12.8 70 3.1 WSW 9 15 5 8 1014.5 1014.4 0.0
24/10:30am 17.0 16.2 13.9 82 1.8 SW 11 15 6 8 1014.9 1014.8 0.0
24/10:00am 16.2 15.7 13.9 86 1.3 WSW 9 17 5 9 1015.1 1015.0 0.0
24/09:30am 15.5 14.9 13.5 88 1.1 WSW 9 11 5 6 1015.0 1014.9 0.0
24/09:00am 14.6 14.5 13.3 92 0.7 W 6 9 3 5 1015.0 1014.9 1.4
24/08:30am 13.8 13.6 13.0 95 0.4 WSW 6 7 3 4 1015.1 1015.0 1.4
24/08:00am 12.7 12.1 12.2 97 0.3 WSW 7 11 4 6 1015.2 1015.1 1.4
24/07:46am 12.4 13.0 11.9 97 0.3 CALM 0 6 0 3 1015.1 1015.0 1.4
24/07:30am 11.3 10.4 10.7 96 0.3 WNW 6 7 3 4 1015.1 1015.0 1.4
24/07:00am 11.5 11.4 10.9 96 0.3 SW 2 6 1 3 1014.9 1014.8 1.2
24/06:55am 11.4 11.3 10.8 96 0.3 W 2 6 1 3 1014.9 1014.8 1.2
24/06:30am 12.0 12.1 11.4 96 0.3 WSW 2 7 1 4 1014.8 1014.7 1.2
24/06:00am 12.5 13.1 12.0 97 0.3 CALM 0 6 0 3 1014.8 1014.7 1.2
24/05:30am 12.4 11.6 11.8 96 0.3 WSW 7 9 4 5 1014.9 1014.8 1.2
24/05:00am 12.7 12.2 11.9 95 0.4 NE 6 9 3 5 1014.4 1014.3 1.2
24/04:30am 13.0 12.0 12.2 95 0.4 S 9 11 5 6 1014.7 1014.6 1.0
24/04:19am 13.0 12.4 12.4 96 0.3 SSW 7 15 4 8 1015.1 1015.0 1.0
24/04:00am 12.4 9.4 11.9 97 0.3 SW 19 35 10 19 1015.6 1015.5 0.8
24/03:52am 11.1 8.0 10.3 95 0.4 WSW 17 28 9 15 1016.0 1015.9 0.0
24/03:30am 11.8 11.0 11.2 96 0.3 SSW 6 7 3 4 1013.9 1013.9 0.0
24/03:00am 11.2 11.3 10.3 94 0.5 CALM 0 0 0 0 1014.5 1014.4 0.0
24/02:30am 12.1 12.5 11.3 95 0.4 CALM 0 2 0 1 1015.0 1014.9 0.0
24/02:11am 12.0 11.1 11.4 96 0.3 SSW 7 13 4 7 1015.3 1015.2 0.0
24/02:00am 11.2 10.0 10.3 94 0.5 SW 7 13 4 7 1015.6 1015.5 0.0
24/01:58am 11.3 10.3 10.4 94 0.5 SSW 6 11 3 6 1015.6 1015.5 0.0
24/01:54am 11.7 10.9 10.9 95 0.4 SSE 6 7 3 4 1015.5 1015.4 0.0
24/01:31am 12.0 12.4 11.1 94 0.5 CALM 0 0 0 0 1015.6 1015.5 0.0
24/01:30am 11.9 12.2 11.0 94 0.5 CALM 0 0 0 0 1015.7 1015.6 0.0
24/01:00am 11.7 11.9 10.6 93 0.6 CALM 0 6 0 3 1016.0 1015.9 0.0
24/12:41am 12.1 11.2 11.2 94 0.5 SSW 7 9 4 5 1016.2 1016.1 0.0
24/12:30am 12.2 11.4 11.1 93 0.6 SW 6 11 3 6 1016.5 1016.4 0.0
24/12:12am 12.9 13.5 11.8 93 0.6 CALM 0 0 0 0 1016.6 1016.5 0.0
24/12:00am 13.2 13.9 12.1 93 0.6 CALM 0 0 0 0 1016.6 1016.5 0.0
 
Date/Time
EST
Temp
°C
App
Temp
°C
Dew
Point
°C
Rel
Hum
%
Delta-T
°C
Wind Press
QNH
hPa
Press
MSL
hPa
Rain since
9am
mm
Dir  Spd
km/h
Gust
km/h
Spd
kts
Gust
kts
23/11:30pm 12.8 13.3 11.5 92 0.7 CALM 0 6 0 3 1016.8 1016.7 0.0
23/11:00pm 13.1 13.7 11.8 92 0.7 CALM 0 0 0 0 1017.1 1017.0 0.0
23/10:30pm 13.6 14.2 12.0 90 0.9 CALM 0 6 0 3 1017.2 1017.1 0.0
23/10:00pm 14.3 15.0 12.2 87 1.1 CALM 0 0 0 0 1017.4 1017.3 0.0
23/09:30pm 14.5 14.1 12.5 88 1.1 WNW 6 6 3 3 1017.4 1017.3 0.0
23/09:00pm 16.1 17.0 13.9 87 1.2 ENE 2 11 1 6 1017.4 1017.3 0.0
23/08:30pm 16.7 16.9 14.7 88 1.2 E 7 9 4 5 1017.3 1017.2 0.0
23/08:00pm 16.1 15.8 13.4 84 1.5 E 7 9 4 5 1017.4 1017.3 0.0
23/07:30pm 17.6 17.6 14.3 81 1.9 ENE 7 17 4 9 1017.5 1017.4 0.0
23/07:00pm 17.4 17.3 13.9 80 2.0 ENE 7 9 4 5 1017.6 1017.5 0.0
23/06:30pm 17.1 16.6 12.8 76 2.4 E 7 11 4 6 1017.4 1017.3 0.0
23/06:00pm 17.5 17.6 13.8 79 2.1 ENE 6 7 3 4 1017.5 1017.4 0.0
23/05:30pm 18.2 18.1 13.3 73 2.8 NE 6 7 3 4 1017.3 1017.2 0.0
23/05:00pm 19.6 19.3 12.8 65 3.8 N 6 9 3 5 1017.3 1017.2 0.0
23/04:30pm 20.4 20.0 12.9 62 4.3 NE 7 7 4 4 1017.0 1016.9 0.0
23/04:00pm 21.3 20.9 12.4 57 5.0 NNE 6 7 3 4 1017.0 1016.9 0.0
23/03:30pm 22.2 21.7 12.7 55 5.4 N 7 11 4 6 1017.0 1016.9 0.0
23/03:00pm 22.7 22.0 12.0 50 6.0 NW 7 9 4 5 1017.1 1017.0 0.0
23/02:30pm 22.7 22.1 12.3 52 5.9 N 7 13 4 7 1017.4 1017.3 0.0
23/02:00pm 22.4 21.1 12.6 54 5.6 N 11 15 6 8 1017.6 1017.5 0.0
23/01:30pm 22.2 21.0 12.7 55 5.4 NNW 11 15 6 8 1017.9 1017.8 0.0
23/01:00pm 21.7 20.8 13.6 60 4.7 NNW 11 17 6 9 1018.2 1018.1 0.0
23/12:30pm 21.5 20.8 14.2 63 4.3 N 11 17 6 9 1018.9 1018.8 0.0
23/12:00pm 21.5 21.5 15.3 68 3.7 NNW 9 15 5 8 1019.6 1019.5 0.0
23/11:30am 20.1 19.4 14.2 69 3.4 N 11 17 6 9 1020.0 1019.9 0.0
23/11:00am 20.3 20.2 14.9 71 3.2 NNW 9 13 5 7 1020.6 1020.5 0.0
23/10:30am 19.4 19.6 14.2 72 3.0 N 6 13 3 7 1021.1 1021.0 0.0
23/10:00am 18.1 18.6 14.0 77 2.3 SW 4 9 2 5 1021.7 1021.6 0.0
23/09:30am 17.0 16.5 13.9 82 1.8 W 9 13 5 7 1022.0 1022.0 0.0
23/09:00am 15.6 15.0 13.6 88 1.1 W 9 13 5 7 1022.2 1022.2 0.0
23/08:30am 14.0 13.2 12.9 93 0.6 WSW 9 13 5 7 1022.3 1022.3 0.0
23/08:00am 13.2 13.2 12.4 95 0.4 WSW 4 7 2 4 1022.3 1022.3 0.0
23/07:30am 12.7 12.2 12.1 96 0.3 WSW 6 7 3 4 1022.0 1022.0 0.0
23/07:00am 12.1 12.6 11.5 96 0.3 CALM 0 0 0 0 1021.8 1021.8 0.0
23/06:30am 11.9 12.3 11.3 96 0.3 CALM 0 0 0 0 1021.6 1021.5 0.0
23/06:00am 12.0 12.4 11.2 95 0.4 CALM 0 0 0 0 1021.4 1021.3 0.0
23/05:30am 12.1 12.5 11.3 95 0.4 CALM 0 0 0 0 1021.2 1021.1 0.0
23/05:00am 12.5 13.0 11.7 95 0.4 CALM 0 0 0 0 1021.0 1020.9 0.0
23/04:30am 12.7 12.9 11.9 95 0.4 SSW 2 6 1 3 1021.0 1020.9 0.0
23/04:00am 12.4 11.5 11.5 94 0.5 WSW 7 9 4 5 1021.1 1021.0 0.0
23/03:30am 12.6 11.9 11.5 93 0.6 SW 6 7 3 4 1021.3 1021.2 0.0
23/03:00am 13.0 12.5 11.9 93 0.6 WSW 6 7 3 4 1021.4 1021.3 0.0
23/02:30am 13.7 14.5 12.6 93 0.6 CALM 0 0 0 0 1021.6 1021.5 0.0
23/02:00am 13.9 14.1 13.0 94 0.5 SSW 4 6 2 3 1021.8 1021.8 0.0
23/01:30am 13.7 14.6 12.8 94 0.5 CALM 0 0 0 0 1022.1 1022.1 0.0
23/01:00am 13.4 12.9 12.1 92 0.7 SW 6 7 3 4 1022.4 1022.4 0.0
23/12:30am 13.7 13.4 12.6 93 0.6 SSW 6 11 3 6 1022.6 1022.6 0.0
23/12:00am 13.9 13.1 12.8 93 0.6 SW 9 11 5 6 1022.9 1022.9 0.0
 
Date/Time
EST
Temp
°C
App
Temp
°C
Dew
Point
°C
Rel
Hum
%
Delta-T
°C
Wind Press
QNH
hPa
Press
MSL
hPa
Rain since
9am
mm
Dir  Spd
km/h
Gust
km/h
Spd
kts
Gust
kts
22/11:30pm 13.9 13.6 12.8 93 0.6 SSW 6 9 3 5 1023.0 1023.0 0.0
22/11:00pm 13.6 13.0 12.3 92 0.7 SSW 7 9 4 5 1023.0 1023.0 0.0
22/10:30pm 13.7 12.8 12.6 93 0.6 W 9 20 5 11 1023.3 1023.3 0.0
22/10:00pm 13.7 14.0 12.3 91 0.8 SSE 2 6 1 3 1023.4 1023.4 0.0
22/09:30pm 14.6 14.5 12.1 85 1.4 SSW 4 9 2 5 1023.2 1023.2 0.0
22/09:00pm 14.6 14.9 13.3 92 0.7 SSE 4 17 2 9 1023.3 1023.3 0.0
22/08:30pm 13.9 13.5 12.5 91 0.8 ESE 6 7 3 4 1023.2 1023.2 0.0
22/08:00pm 15.3 15.3 13.5 89 1.0 ESE 6 7 3 4 1023.0 1023.0 0.0
22/07:30pm 15.1 14.9 13.5 90 0.9 ESE 7 9 4 5 1022.9 1022.9 0.0
22/07:00pm 15.4 14.7 13.1 86 1.3 ESE 9 9 5 5 1022.8 1022.8 0.0
22/06:30pm 16.2 15.7 13.7 85 1.4 SE 9 11 5 6 1022.8 1022.8 0.0
22/06:00pm 16.4 16.4 13.5 83 1.6 E 6 7 3 4 1022.8 1022.8 0.0
22/05:30pm 16.9 16.7 13.6 81 1.9 ESE 7 9 4 5 1022.3 1022.3 0.0
22/05:00pm 17.5 16.9 13.6 78 2.2 E 9 13 5 7 1022.1 1022.1 0.0
22/04:30pm 18.3 17.4 13.6 74 2.7 E 11 19 6 10 1021.9 1021.9 0.0
22/04:00pm 18.7 17.6 13.1 70 3.2 E 11 13 6 7 1021.9 1021.9 0.0
22/03:30pm 19.4 17.8 12.9 66 3.7 E 13 20 7 11 1021.9 1021.9 0.0
22/03:00pm 19.7 18.8 13.6 68 3.5 E 11 15 6 8 1021.8 1021.8 0.0
22/02:30pm 19.6 18.2 13.5 68 3.5 ENE 13 19 7 10 1021.9 1021.9 0.0
22/02:00pm 20.9 20.4 12.8 60 4.6 NNE 7 11 4 6 1022.2 1022.2 0.0
22/01:30pm 21.3 20.3 12.2 56 5.1 NE 9 15 5 8 1022.3 1022.3 0.0
22/01:00pm 21.0 20.2 11.6 55 5.2 NNE 7 15 4 8 1022.5 1022.5 0.0
22/12:30pm 20.6 19.0 11.5 56 5.1 N 11 15 6 8 1022.6 1022.6 0.0
22/12:00pm 20.3 19.9 13.0 63 4.1 N 7 13 4 7 1023.2 1023.2 0.0
22/11:30am 19.9 19.6 13.4 66 3.7 N 7 13 4 7 1023.5 1023.5 0.0
22/11:00am 19.4 18.8 13.6 69 3.3 NNW 9 13 5 7 1024.0 1024.0 0.0
22/10:30am 18.6 18.1 13.9 74 2.7 WNW 9 13 5 7 1024.5 1024.5 0.0
22/10:00am 17.5 16.7 14.0 80 2.0 WSW 11 15 6 8 1024.7 1024.7 0.0
22/09:30am 16.3 15.8 13.8 85 1.4 W 9 13 5 7 1024.9 1024.9 0.0
22/09:00am 14.7 13.9 12.9 89 1.0 W 9 13 5 7 1024.8 1024.8 0.0
22/08:30am 13.4 11.8 12.8 96 0.3 WSW 13 15 7 8 1024.6 1024.6 0.0
22/08:00am 11.9 9.5 11.4 97 0.3 SW 15 17 8 9 1024.4 1024.4 0.0
22/07:30am 11.2 8.7 10.9 98 0.2 WSW 15 17 8 9 1024.1 1024.1 0.0

Other Formats:

Comma delimited format used in spreadsheet applications
http://www.bom.gov.au/fwo/IDN60801/IDN60801.95761.axf

JavaScript Object Notation format (JSON) in row-major order
http://www.bom.gov.au/fwo/IDN60801/IDN60801.95761.json